createdAt,value
2018-10-06T00:01:15.032Z,13.50
2018-10-06T00:03:44.002Z,13.40
2018-10-06T00:06:13.018Z,13.40
2018-10-06T00:08:42.126Z,13.40
2018-10-06T00:11:11.188Z,13.40
2018-10-06T00:13:40.206Z,13.30
2018-10-06T00:16:09.282Z,13.30
2018-10-06T00:18:38.649Z,13.30
2018-10-06T00:21:07.702Z,13.20
2018-10-06T00:23:36.830Z,13.20
2018-10-06T00:26:05.920Z,13.20
2018-10-06T00:28:35.030Z,13.20
2018-10-06T00:31:04.125Z,13.10
2018-10-06T00:33:34.214Z,13.10
2018-10-06T00:36:03.310Z,13.10
2018-10-06T00:38:32.416Z,13.10
2018-10-06T00:41:01.482Z,13.10
2018-10-06T00:43:30.958Z,13.10
2018-10-06T00:45:59.953Z,13.00
2018-10-06T00:48:28.985Z,13.00
2018-10-06T00:50:58.046Z,13.00
2018-10-06T00:53:27.049Z,13.00
2018-10-06T00:55:56.154Z,13.00
2018-10-06T00:58:25.185Z,13.00
2018-10-06T01:00:54.240Z,13.00
2018-10-06T01:03:23.315Z,12.90
2018-10-06T01:05:52.339Z,12.90
2018-10-06T01:08:21.458Z,12.90
2018-10-06T01:10:50.613Z,12.90
2018-10-06T01:13:19.715Z,12.90
2018-10-06T01:15:48.805Z,12.90
2018-10-06T01:18:17.781Z,12.90
2018-10-06T01:20:46.814Z,12.80
2018-10-06T01:23:15.789Z,12.80
2018-10-06T01:25:44.793Z,12.80
2018-10-06T01:28:13.906Z,12.80
2018-10-06T01:30:42.901Z,12.80
2018-10-06T01:33:11.942Z,12.70
2018-10-06T01:35:40.961Z,12.70
2018-10-06T01:38:10.055Z,12.70
2018-10-06T01:40:39.093Z,12.70
2018-10-06T01:43:08.091Z,12.70
2018-10-06T01:45:37.044Z,12.60
2018-10-06T01:48:06.724Z,12.60
2018-10-06T01:50:35.679Z,12.60
2018-10-06T01:53:04.669Z,12.60
2018-10-06T01:55:33.664Z,12.60
2018-10-06T01:58:02.646Z,12.50
2018-10-06T02:00:31.714Z,12.50
2018-10-06T02:03:00.770Z,12.50
2018-10-06T02:05:29.708Z,12.50
2018-10-06T02:07:58.862Z,12.50
2018-10-06T02:10:28.162Z,12.50
2018-10-06T02:12:57.118Z,12.40
2018-10-06T02:15:26.098Z,12.40
2018-10-06T02:17:55.111Z,12.40
2018-10-06T02:20:24.090Z,12.40
2018-10-06T02:22:53.173Z,12.40
2018-10-06T02:25:22.182Z,12.40
2018-10-06T02:27:51.181Z,12.40
2018-10-06T02:30:20.287Z,12.40
2018-10-06T02:32:49.572Z,12.40
2018-10-06T02:35:18.668Z,12.40
2018-10-06T02:37:47.686Z,12.40
2018-10-06T02:40:16.656Z,12.30
2018-10-06T02:42:45.637Z,12.30
2018-10-06T02:45:14.629Z,12.30
2018-10-06T02:47:43.646Z,12.30
2018-10-06T02:50:12.650Z,12.30
2018-10-06T02:52:41.652Z,12.30
2018-10-06T02:55:10.668Z,12.30
2018-10-06T02:57:39.648Z,12.30
2018-10-06T03:00:08.795Z,12.30
2018-10-06T03:02:37.875Z,12.30
2018-10-06T03:05:07.016Z,12.30
2018-10-06T03:07:35.985Z,12.20
2018-10-06T03:10:05.078Z,12.20
2018-10-06T03:12:34.069Z,12.20
2018-10-06T03:15:03.066Z,12.20
2018-10-06T03:17:32.082Z,12.20
2018-10-06T03:20:01.081Z,12.20
2018-10-06T03:22:30.036Z,12.20
2018-10-06T03:24:59.053Z,12.20
2018-10-06T03:27:28.045Z,12.20
2018-10-06T03:29:57.029Z,12.20
2018-10-06T03:32:26.030Z,12.10
2018-10-06T03:34:55.018Z,12.10
2018-10-06T03:37:24.009Z,12.10
2018-10-06T03:39:53.027Z,12.10
2018-10-06T03:42:22.034Z,12.10
2018-10-06T03:44:51.009Z,12.00
2018-10-06T03:47:20.046Z,12.10
2018-10-06T03:49:49.154Z,12.10
2018-10-06T03:52:18.258Z,12.10
2018-10-06T03:54:47.242Z,12.00
2018-10-06T03:57:16.341Z,12.00
2018-10-06T03:59:45.585Z,12.00
2018-10-06T04:02:14.593Z,12.00
2018-10-06T04:04:43.595Z,12.00
2018-10-06T04:07:12.595Z,12.00
2018-10-06T04:09:41.678Z,12.00
2018-10-06T04:12:10.803Z,11.90
2018-10-06T04:14:49.295Z,11.90
2018-10-06T04:17:18.283Z,11.90
2018-10-06T04:19:47.307Z,11.90
2018-10-06T04:22:16.479Z,11.90
2018-10-06T04:24:45.585Z,11.90
2018-10-06T04:27:14.675Z,11.90
2018-10-06T04:29:43.777Z,11.90
2018-10-06T04:32:12.874Z,11.80
2018-10-06T04:34:41.963Z,11.80
2018-10-06T04:37:11.069Z,11.80
2018-10-06T04:39:40.171Z,11.80
2018-10-06T04:42:09.258Z,11.80
2018-10-06T04:44:38.365Z,11.80
2018-10-06T04:47:07.382Z,11.80
2018-10-06T04:49:36.373Z,11.80
2018-10-06T04:52:05.525Z,11.80
2018-10-06T04:54:34.621Z,11.80
2018-10-06T04:57:03.701Z,11.80
2018-10-06T04:59:32.852Z,11.80
2018-10-06T05:02:01.917Z,11.80
2018-10-06T05:04:31.021Z,11.80
2018-10-06T05:07:00.021Z,11.80
2018-10-06T05:09:28.983Z,11.80
2018-10-06T05:11:58.113Z,11.80
2018-10-06T05:14:27.095Z,11.80
2018-10-06T05:16:56.144Z,11.80
2018-10-06T05:19:25.158Z,11.80
2018-10-06T05:21:54.189Z,11.80
2018-10-06T05:24:23.233Z,11.80
2018-10-06T05:26:52.209Z,11.80
2018-10-06T05:29:21.237Z,11.80
2018-10-06T05:31:50.387Z,11.80
2018-10-06T05:34:19.626Z,11.80
2018-10-06T05:36:48.713Z,11.80
2018-10-06T05:39:17.833Z,11.80
2018-10-06T05:41:46.934Z,11.80
2018-10-06T05:44:16.007Z,11.80
2018-10-06T05:46:45.103Z,11.80
2018-10-06T05:49:14.201Z,11.80
2018-10-06T05:51:43.299Z,11.80
2018-10-06T05:54:12.383Z,11.80
2018-10-06T05:56:41.466Z,11.80
2018-10-06T05:59:10.588Z,11.80
2018-10-06T06:01:39.585Z,11.80
2018-10-06T06:04:08.575Z,11.80
2018-10-06T06:06:37.568Z,11.80
2018-10-06T06:09:06.998Z,11.80
2018-10-06T06:11:36.276Z,11.80
2018-10-06T06:14:05.368Z,11.80
2018-10-06T06:16:34.430Z,11.80
2018-10-06T06:19:03.446Z,11.80
2018-10-06T06:21:32.467Z,11.80
2018-10-06T06:24:01.700Z,11.80
2018-10-06T06:26:30.509Z,11.80
2018-10-06T06:28:59.706Z,11.90
2018-10-06T06:31:28.741Z,11.90
2018-10-06T06:33:57.786Z,11.90
2018-10-06T06:36:26.772Z,12.00
2018-10-06T06:38:55.810Z,12.00
2018-10-06T06:41:24.917Z,12.10
2018-10-06T06:43:54.055Z,12.10
2018-10-06T06:46:22.990Z,12.20
2018-10-06T06:48:52.084Z,12.30
2018-10-06T06:51:21.190Z,12.30
2018-10-06T06:53:50.310Z,12.40
2018-10-06T06:56:19.301Z,12.50
2018-10-06T06:58:48.369Z,12.50
2018-10-06T07:01:17.466Z,12.50
2018-10-06T07:03:46.547Z,12.60
2018-10-06T07:06:15.638Z,12.60
2018-10-06T07:08:44.803Z,12.70
2018-10-06T07:11:13.834Z,12.70
2018-10-06T07:13:42.977Z,12.80
2018-10-06T07:16:12.048Z,12.80
2018-10-06T07:18:41.301Z,12.80
2018-10-06T07:21:10.309Z,12.90
2018-10-06T07:23:39.429Z,13.00
2018-10-06T07:26:08.493Z,13.00
2018-10-06T07:28:37.683Z,13.10
2018-10-06T07:31:06.787Z,13.20
2018-10-06T07:33:35.947Z,13.30
2018-10-06T07:36:05.042Z,13.30
2018-10-06T07:38:34.223Z,13.40
2018-10-06T07:41:03.399Z,13.50
2018-10-06T07:43:32.496Z,13.60
2018-10-06T07:46:01.600Z,13.70
2018-10-06T07:48:30.658Z,13.80
2018-10-06T07:50:59.846Z,13.90
2018-10-06T07:53:28.976Z,14.00
2018-10-06T07:55:58.036Z,14.00
2018-10-06T07:58:27.030Z,14.10
2018-10-06T08:00:56.074Z,14.20
2018-10-06T08:03:25.255Z,14.30
2018-10-06T08:05:54.325Z,14.40
2018-10-06T08:08:23.319Z,14.50
2018-10-06T08:10:52.331Z,14.60
2018-10-06T08:13:21.446Z,14.70
2018-10-06T08:15:50.528Z,14.80
2018-10-06T08:18:19.623Z,14.90
2018-10-06T08:20:48.623Z,15.00
2018-10-06T08:23:17.812Z,15.10
2018-10-06T08:25:46.870Z,15.20
2018-10-06T08:28:15.909Z,15.30
2018-10-06T08:30:44.931Z,15.40
2018-10-06T08:33:14.033Z,15.50
2018-10-06T08:35:43.061Z,15.60
2018-10-06T08:38:12.069Z,15.70
2018-10-06T08:40:41.215Z,15.80
2018-10-06T08:43:10.255Z,15.90
2018-10-06T08:45:39.419Z,16.00
2018-10-06T08:48:08.563Z,16.10
2018-10-06T08:50:37.667Z,16.20
2018-10-06T08:53:06.948Z,16.30
2018-10-06T08:55:36.048Z,16.50
2018-10-06T08:58:05.031Z,16.60
2018-10-06T09:00:34.087Z,16.70
2018-10-06T09:03:03.121Z,16.80
2018-10-06T09:05:32.205Z,16.90
2018-10-06T09:08:01.276Z,17.10
2018-10-06T09:10:30.283Z,17.20
2018-10-06T09:12:59.372Z,17.30
2018-10-06T09:15:28.395Z,17.40
2018-10-06T09:17:57.562Z,17.50
2018-10-06T09:20:26.508Z,17.50
2018-10-06T09:22:55.498Z,17.70
2018-10-06T09:25:24.663Z,17.80
2018-10-06T09:27:53.648Z,17.90
2018-10-06T09:30:22.654Z,18.00
2018-10-06T09:32:51.766Z,18.00
2018-10-06T09:35:20.914Z,18.20
2018-10-06T09:37:50.031Z,18.30
2018-10-06T09:40:19.078Z,18.40
2018-10-06T09:42:48.219Z,18.50
2018-10-06T09:45:17.178Z,18.60
2018-10-06T09:47:46.306Z,18.70
2018-10-06T09:50:15.338Z,18.80
2018-10-06T09:52:44.342Z,18.90
2018-10-06T09:55:13.474Z,19.00
2018-10-06T09:57:42.615Z,19.10
2018-10-06T10:00:11.696Z,19.20
2018-10-06T10:02:46.030Z,19.30
2018-10-06T10:05:20.444Z,19.40
2018-10-06T10:07:49.518Z,19.50
2018-10-06T10:10:18.562Z,19.60
2018-10-06T10:12:47.732Z,19.70
2018-10-06T10:15:16.712Z,19.80
2018-10-06T10:17:45.873Z,19.90
2018-10-06T10:20:14.798Z,20.10
2018-10-06T10:22:43.936Z,20.20
2018-10-06T10:25:13.118Z,20.30
2018-10-06T10:27:42.226Z,20.40
2018-10-06T10:30:11.386Z,20.50
2018-10-06T10:32:40.487Z,20.70
2018-10-06T10:35:09.644Z,20.90
2018-10-06T10:37:38.698Z,21.10
2018-10-06T10:40:07.972Z,21.20
2018-10-06T10:42:37.018Z,21.40
2018-10-06T10:45:06.126Z,21.50
2018-10-06T10:47:35.412Z,21.60
2018-10-06T10:50:04.610Z,21.60
2018-10-06T10:52:33.764Z,21.70
2018-10-06T10:55:02.804Z,21.70
2018-10-06T10:57:31.862Z,21.70
2018-10-06T11:00:01.146Z,21.80
2018-10-06T11:02:30.080Z,21.90
2018-10-06T11:04:59.154Z,21.90
2018-10-06T11:07:28.228Z,22.00
2018-10-06T11:09:57.302Z,22.10
2018-10-06T11:12:26.386Z,22.20
2018-10-06T11:14:55.737Z,22.30
2018-10-06T11:17:24.868Z,22.30
2018-10-06T11:19:53.877Z,22.40
2018-10-06T11:22:23.887Z,22.50
2018-10-06T11:24:52.990Z,22.50
2018-10-06T11:27:22.013Z,22.60
2018-10-06T11:29:51.001Z,22.60
2018-10-06T11:32:20.009Z,22.70
2018-10-06T11:34:49.061Z,22.70
2018-10-06T11:37:18.101Z,22.70
2018-10-06T11:39:47.117Z,22.70
2018-10-06T11:42:16.279Z,22.70
2018-10-06T11:44:45.403Z,22.70
2018-10-06T11:47:14.498Z,22.70
2018-10-06T11:49:43.599Z,22.70
2018-10-06T11:52:12.683Z,22.70
2018-10-06T11:54:41.948Z,22.70
2018-10-06T11:57:11.030Z,22.70
2018-10-06T11:59:40.152Z,22.80
2018-10-06T12:02:09.167Z,22.80
2018-10-06T12:04:38.285Z,22.80
2018-10-06T12:07:07.544Z,22.80
2018-10-06T12:09:36.538Z,22.90
2018-10-06T12:12:09.355Z,22.90
2018-10-06T12:14:38.435Z,22.90
2018-10-06T12:17:07.539Z,22.90
2018-10-06T12:19:36.641Z,22.90
2018-10-06T12:22:05.730Z,22.90
2018-10-06T12:24:34.814Z,22.90
2018-10-06T12:27:03.978Z,22.90
2018-10-06T12:29:33.017Z,23.00
2018-10-06T12:32:02.104Z,23.00
2018-10-06T12:34:31.126Z,23.10
2018-10-06T12:37:00.203Z,23.20
2018-10-06T12:39:29.396Z,23.20
2018-10-06T12:41:58.479Z,23.20
2018-10-06T12:44:27.588Z,23.30
2018-10-06T12:46:56.628Z,23.30
2018-10-06T12:49:25.689Z,23.30
2018-10-06T12:51:54.725Z,23.40
2018-10-06T12:54:23.712Z,23.40
2018-10-06T12:56:52.805Z,23.40
2018-10-06T12:59:21.865Z,23.40
2018-10-06T13:01:50.933Z,23.40
2018-10-06T13:04:19.974Z,23.40
2018-10-06T13:06:49.033Z,23.40
2018-10-06T13:09:18.578Z,23.40
2018-10-06T13:11:47.867Z,23.50
2018-10-06T13:14:16.902Z,23.50
2018-10-06T13:16:45.938Z,23.60
2018-10-06T13:19:15.028Z,23.60
2018-10-06T13:21:44.084Z,23.60
2018-10-06T13:24:13.073Z,23.60
2018-10-06T13:26:42.079Z,23.60
2018-10-06T13:29:11.051Z,23.60
2018-10-06T13:31:40.107Z,23.60
2018-10-06T13:34:09.220Z,23.60
2018-10-06T13:36:38.510Z,23.60
2018-10-06T13:39:08.478Z,23.60
2018-10-06T13:41:37.588Z,23.60
2018-10-06T13:44:06.707Z,23.60
2018-10-06T13:46:35.870Z,23.50
2018-10-06T13:49:04.878Z,23.50
2018-10-06T13:51:33.966Z,23.50
2018-10-06T13:54:03.005Z,23.50
2018-10-06T13:56:32.082Z,23.50
2018-10-06T13:59:01.276Z,23.50
2018-10-06T14:01:30.350Z,23.50
2018-10-06T14:03:59.466Z,23.50
2018-10-06T14:06:28.614Z,23.50
2018-10-06T14:08:57.856Z,23.40
2018-10-06T14:11:26.938Z,23.40
2018-10-06T14:13:56.058Z,23.40
2018-10-06T14:16:25.085Z,23.50
2018-10-06T14:18:54.199Z,23.40
2018-10-06T14:21:23.309Z,23.50
2018-10-06T14:23:52.442Z,23.50
2018-10-06T14:26:21.794Z,23.50
2018-10-06T14:28:50.815Z,23.50
2018-10-06T14:31:19.927Z,23.50
2018-10-06T14:33:49.010Z,23.50
2018-10-06T14:36:18.142Z,23.50
2018-10-06T14:38:47.214Z,23.50
2018-10-06T14:41:16.314Z,23.50
2018-10-06T14:43:45.426Z,23.50
2018-10-06T14:46:14.522Z,23.50
2018-10-06T14:48:43.652Z,23.50
2018-10-06T14:51:13.185Z,23.50
2018-10-06T14:53:42.323Z,23.50
2018-10-06T14:56:11.397Z,23.50
2018-10-06T14:58:40.483Z,23.50
2018-10-06T15:01:09.586Z,23.50
2018-10-06T15:03:38.633Z,23.50
2018-10-06T15:06:07.689Z,23.50
2018-10-06T15:08:36.791Z,23.60
2018-10-06T15:11:05.963Z,23.60
2018-10-06T15:13:36.027Z,23.60
2018-10-06T15:16:05.121Z,23.60
2018-10-06T15:18:34.185Z,23.70
2018-10-06T15:21:03.311Z,23.70
2018-10-06T15:23:32.337Z,23.70
2018-10-06T15:26:01.355Z,23.70
2018-10-06T15:28:30.465Z,23.70
2018-10-06T15:30:59.534Z,23.80
2018-10-06T15:33:28.633Z,23.90
2018-10-06T15:35:58.056Z,23.90
2018-10-06T15:38:27.074Z,23.90
2018-10-06T15:40:56.170Z,24.00
2018-10-06T15:43:25.209Z,24.00
2018-10-06T15:45:54.225Z,24.10
2018-10-06T15:48:23.350Z,24.10
2018-10-06T15:50:52.552Z,24.10
2018-10-06T15:53:21.701Z,24.10
2018-10-06T15:55:50.685Z,24.10
2018-10-06T15:58:19.703Z,24.00
2018-10-06T16:00:48.694Z,24.00
2018-10-06T16:03:17.678Z,24.00
2018-10-06T16:05:46.856Z,24.00
2018-10-06T16:08:15.963Z,24.00
2018-10-06T16:10:44.977Z,23.90
2018-10-06T16:13:14.179Z,23.90
2018-10-06T16:15:43.337Z,23.90
2018-10-06T16:18:12.354Z,23.90
2018-10-06T16:20:41.376Z,23.80
2018-10-06T16:23:10.462Z,23.70
2018-10-06T16:25:39.519Z,23.70
2018-10-06T16:28:08.614Z,23.70
2018-10-06T16:30:37.644Z,23.60
2018-10-06T16:33:06.945Z,23.50
2018-10-06T16:35:36.070Z,23.50
2018-10-06T16:38:05.273Z,23.50
2018-10-06T16:40:34.341Z,23.40
2018-10-06T16:43:03.444Z,23.30
2018-10-06T16:45:32.820Z,23.20
2018-10-06T16:48:01.939Z,23.10
2018-10-06T16:50:31.082Z,23.10
2018-10-06T16:53:00.146Z,23.00
2018-10-06T16:55:29.182Z,22.90
2018-10-06T16:57:58.258Z,22.80
2018-10-06T17:00:27.415Z,22.70
2018-10-06T17:02:56.442Z,22.70
2018-10-06T17:05:25.551Z,22.60
2018-10-06T17:07:54.654Z,22.50
2018-10-06T17:10:24.509Z,22.50
2018-10-06T17:12:53.598Z,22.40
2018-10-06T17:15:22.677Z,22.30
2018-10-06T17:17:51.674Z,22.20
2018-10-06T17:20:21.016Z,22.10
2018-10-06T17:22:50.064Z,22.00
2018-10-06T17:25:19.081Z,21.90
2018-10-06T17:27:48.158Z,21.80
2018-10-06T17:30:17.332Z,21.70
2018-10-06T17:32:46.377Z,21.60
2018-10-06T17:35:15.373Z,21.60
2018-10-06T17:37:44.455Z,21.50
2018-10-06T17:40:13.491Z,21.40
2018-10-06T17:42:42.561Z,21.30
2018-10-06T17:45:11.631Z,21.20
2018-10-06T17:47:40.785Z,21.20
2018-10-06T17:50:10.104Z,21.10
2018-10-06T17:52:38.928Z,21.00
2018-10-06T17:55:07.929Z,21.00
2018-10-06T17:57:37.468Z,20.90
2018-10-06T18:00:06.521Z,20.90
2018-10-06T18:02:35.515Z,20.90
2018-10-06T18:05:04.614Z,20.90
2018-10-06T18:07:33.721Z,20.80
2018-10-06T18:10:02.860Z,20.80
2018-10-06T18:12:31.885Z,20.80
2018-10-06T18:15:00.969Z,20.70
2018-10-06T18:17:30.051Z,20.70
2018-10-06T18:19:59.149Z,20.70
2018-10-06T18:22:28.143Z,20.70
2018-10-06T18:24:57.233Z,20.70
2018-10-06T18:27:26.311Z,20.60
2018-10-06T18:29:55.373Z,20.60
2018-10-06T18:32:24.439Z,20.60
2018-10-06T18:34:53.556Z,20.50
2018-10-06T18:37:22.715Z,20.50
2018-10-06T18:39:51.743Z,20.40
2018-10-06T18:42:20.806Z,20.40
2018-10-06T18:44:49.937Z,20.40
2018-10-06T18:47:19.059Z,20.40
2018-10-06T18:49:48.122Z,20.30
2018-10-06T18:52:17.232Z,20.30
2018-10-06T18:54:46.375Z,20.30
2018-10-06T18:57:15.407Z,20.20
2018-10-06T18:59:44.516Z,20.20
2018-10-06T19:02:13.635Z,20.20
2018-10-06T19:04:42.725Z,20.10
2018-10-06T19:07:11.788Z,20.10
2018-10-06T19:09:40.895Z,20.00
2018-10-06T19:12:10.025Z,20.00
2018-10-06T19:14:39.082Z,19.90
2018-10-06T19:17:08.169Z,19.90
2018-10-06T19:19:37.308Z,19.80
2018-10-06T19:22:06.364Z,19.80
2018-10-06T19:24:35.434Z,19.70
2018-10-06T19:27:04.601Z,19.70
2018-10-06T19:29:33.690Z,19.60
2018-10-06T19:32:02.730Z,19.60
2018-10-06T19:34:31.852Z,19.60
2018-10-06T19:37:00.886Z,19.50
2018-10-06T19:39:29.948Z,19.50
2018-10-06T19:41:59.018Z,19.50
2018-10-06T19:44:28.343Z,19.50
2018-10-06T19:46:57.450Z,19.50
2018-10-06T19:49:26.440Z,19.50
2018-10-06T19:51:55.456Z,19.50
2018-10-06T19:54:24.475Z,19.50
2018-10-06T19:56:53.467Z,19.60
2018-10-06T19:59:22.482Z,19.50
2018-10-06T20:01:51.626Z,19.50
2018-10-06T20:04:20.784Z,19.40
2018-10-06T20:06:49.744Z,19.40
2018-10-06T20:09:18.744Z,19.40
2018-10-06T20:11:47.824Z,19.30
2018-10-06T20:14:16.907Z,19.30
2018-10-06T20:16:45.978Z,19.30
2018-10-06T20:19:15.162Z,19.20
2018-10-06T20:21:44.158Z,19.20
2018-10-06T20:24:13.216Z,19.20
2018-10-06T20:26:42.226Z,19.10
2018-10-06T20:29:17.832Z,19.10
2018-10-06T20:31:46.986Z,19.10
2018-10-06T20:34:16.098Z,19.00
2018-10-06T20:36:45.183Z,18.90
2018-10-06T20:39:14.278Z,18.80
2018-10-06T20:41:43.394Z,18.80
2018-10-06T20:44:12.426Z,18.70
2018-10-06T20:46:41.461Z,18.70
2018-10-06T20:49:10.537Z,18.70
2018-10-06T20:51:39.638Z,18.70
2018-10-06T20:54:08.765Z,18.70
2018-10-06T20:56:37.796Z,18.60
2018-10-06T20:59:06.805Z,18.60
2018-10-06T21:01:35.959Z,18.60
2018-10-06T21:04:05.014Z,18.60
2018-10-06T21:06:34.077Z,18.50
2018-10-06T21:09:03.195Z,18.50
2018-10-06T21:11:32.307Z,18.50
2018-10-06T21:14:01.385Z,18.50
2018-10-06T21:16:30.357Z,18.50
2018-10-06T21:18:59.406Z,18.50
2018-10-06T21:21:28.497Z,18.50
2018-10-06T21:23:57.554Z,18.50
2018-10-06T21:26:26.557Z,18.50
2018-10-06T21:28:55.627Z,18.50
2018-10-06T21:31:24.643Z,18.40
2018-10-06T21:33:53.617Z,18.40
2018-10-06T21:36:22.615Z,18.40
2018-10-06T21:38:51.700Z,18.40
2018-10-06T21:41:20.717Z,18.40
2018-10-06T21:43:49.909Z,18.30
2018-10-06T21:46:19.859Z,18.30
2018-10-06T21:48:48.865Z,18.30
2018-10-06T21:51:17.883Z,18.30
2018-10-06T21:53:46.927Z,18.20
2018-10-06T21:56:15.987Z,18.20
2018-10-06T21:58:45.004Z,18.20
2018-10-06T22:01:14.936Z,18.20
2018-10-06T22:03:43.906Z,18.20
2018-10-06T22:06:12.921Z,18.20
2018-10-06T22:08:42.569Z,18.10
2018-10-06T22:11:12.959Z,18.10
2018-10-06T22:13:42.487Z,18.00
2018-10-06T22:16:11.516Z,18.00
2018-10-06T22:18:40.568Z,18.00
2018-10-06T22:21:09.735Z,18.00
2018-10-06T22:23:38.942Z,17.90
2018-10-06T22:26:08.050Z,17.90
2018-10-06T22:28:37.164Z,17.90
2018-10-06T22:31:06.439Z,17.80
2018-10-06T22:33:35.582Z,17.80
2018-10-06T22:36:04.668Z,17.80
2018-10-06T22:38:33.838Z,17.80
2018-10-06T22:41:02.933Z,17.80
2018-10-06T22:43:32.071Z,17.80
2018-10-06T22:46:01.216Z,17.80
2018-10-06T22:48:30.413Z,17.80
2018-10-06T22:50:59.539Z,17.80
2018-10-06T22:53:28.694Z,17.80
2018-10-06T22:55:57.803Z,17.80
2018-10-06T22:58:26.973Z,17.80
2018-10-06T23:00:56.019Z,17.80
2018-10-06T23:03:25.128Z,17.80
2018-10-06T23:05:54.280Z,17.80
2018-10-06T23:08:23.619Z,17.80
2018-10-06T23:10:52.703Z,17.80
2018-10-06T23:13:21.847Z,17.70
2018-10-06T23:15:50.883Z,17.70
2018-10-06T23:18:19.985Z,17.70
2018-10-06T23:20:49.714Z,17.70
2018-10-06T23:23:18.854Z,17.80
2018-10-06T23:25:48.172Z,17.80
2018-10-06T23:28:17.303Z,17.80
2018-10-06T23:30:46.390Z,17.70
2018-10-06T23:33:15.491Z,17.70
2018-10-06T23:35:44.629Z,17.70
2018-10-06T23:38:13.757Z,17.80
2018-10-06T23:40:42.871Z,17.80
2018-10-06T23:43:11.980Z,17.70
2018-10-06T23:45:41.082Z,17.70
2018-10-06T23:48:10.169Z,17.60
2018-10-06T23:50:39.271Z,17.50
2018-10-06T23:53:08.387Z,17.40
2018-10-06T23:55:37.435Z,17.30
2018-10-06T23:58:06.548Z,17.30
